Terminal Aerodrome Forecast
Issued by NWS

Home | Current Version | Previous Version | Text Only | Print | Product List | Glossary On
Versions: 1 2 3 4 5 6 7 8 9 10 11 12
000
FTUS45 KABQ 040500
TAFROW
TAF
KROW 040527Z 0406/0506 16015KT P6SM VCSH BKN090
     FM041000 15012KT P6SM BKN050
     FM041400 15018G26KT P6SM VCSH BKN025
     FM041800 16020G30KT P6SM -SHRA OVC050 PROB30 0418/0422 +TSRA
      BKN025CB
     FM042200 14012KT P6SM -TSRA OVC040CB=

USA.gov is the U.S. government's official web portal to all federal, state and local government web resources and services.